sensor_id;sensor_type;location;lat;lon;timestamp;pressure;altitude;pressure_sealevel;temperature;humidity
27958;BME280;15295;42.658;23.374;2022-07-29T00:00:11;94767.03;;;24.34;53.62
27958;BME280;15295;42.658;23.374;2022-07-29T00:02:50;94786.00;;;24.60;53.19
27958;BME280;15295;42.658;23.374;2022-07-29T00:05:50;94761.44;;;24.05;53.97
27958;BME280;15295;42.658;23.374;2022-07-29T00:08:27;94787.66;;;24.37;53.05
27958;BME280;15295;42.658;23.374;2022-07-29T00:10:54;94789.38;;;24.34;53.42
27958;BME280;15295;42.658;23.374;2022-07-29T00:13:35;94799.91;;;24.39;52.97
27958;BME280;15295;42.658;23.374;2022-07-29T00:16:10;94770.69;;;24.26;52.91
27958;BME280;15295;42.658;23.374;2022-07-29T00:18:39;94805.41;;;24.48;53.23
27958;BME280;15295;42.658;23.374;2022-07-29T00:21:18;94779.66;;;24.44;53.01
27958;BME280;15295;42.658;23.374;2022-07-29T00:34:34;94807.31;;;24.57;52.67
27958;BME280;15295;42.658;23.374;2022-07-29T00:37:20;94767.44;;;24.42;52.44
27958;BME280;15295;42.658;23.374;2022-07-29T00:39:52;94780.91;;;24.58;52.74
27958;BME280;15295;42.658;23.374;2022-07-29T00:42:35;94798.75;;;24.75;52.28
27958;BME280;15295;42.658;23.374;2022-07-29T00:45:28;94797.84;;;24.69;52.66
27958;BME280;15295;42.658;23.374;2022-07-29T00:48:52;94780.31;;;24.69;52.48
27958;BME280;15295;42.658;23.374;2022-07-29T00:51:39;94789.47;;;24.84;52.13
27958;BME280;15295;42.658;23.374;2022-07-29T00:54:42;94805.75;;;25.00;51.86
27958;BME280;15295;42.658;23.374;2022-07-29T01:01:12;94804.59;;;24.92;52.50
27958;BME280;15295;42.658;23.374;2022-07-29T01:07:09;94805.53;;;25.03;52.50
27958;BME280;15295;42.658;23.374;2022-07-29T01:10:18;94799.06;;;25.12;52.44
27958;BME280;15295;42.658;23.374;2022-07-29T01:13:32;94802.03;;;25.23;52.33
27958;BME280;15295;42.658;23.374;2022-07-29T01:16:24;94802.88;;;25.29;52.23
27958;BME280;15295;42.658;23.374;2022-07-29T01:43:31;94781.28;;;25.30;53.06
27958;BME280;15295;42.658;23.374;2022-07-29T01:46:19;94783.31;;;25.49;52.80
27958;BME280;15295;42.658;23.374;2022-07-29T01:49:34;94778.00;;;25.71;52.36
27958;BME280;15295;42.658;23.374;2022-07-29T01:52:31;94760.88;;;25.64;51.99
27958;BME280;15295;42.658;23.374;2022-07-29T01:55:44;94753.69;;;25.57;51.80
27958;BME280;15295;42.658;23.374;2022-07-29T01:58:26;94762.91;;;25.63;51.98
27958;BME280;15295;42.658;23.374;2022-07-29T02:00:54;94775.06;;;25.60;52.21
27958;BME280;15295;42.658;23.374;2022-07-29T02:03:28;94776.41;;;25.45;52.40
27958;BME280;15295;42.658;23.374;2022-07-29T02:06:19;94767.63;;;25.37;52.30
27958;BME280;15295;42.658;23.374;2022-07-29T02:13:06;94767.53;;;25.11;52.46
27958;BME280;15295;42.658;23.374;2022-07-29T02:16:02;94745.41;;;24.93;52.47
27958;BME280;15295;42.658;23.374;2022-07-29T02:19:09;94728.28;;;24.71;52.70
27958;BME280;15295;42.658;23.374;2022-07-29T02:21:45;94736.94;;;24.73;52.62
27958;BME280;15295;42.658;23.374;2022-07-29T02:24:28;94737.53;;;24.77;52.11
27958;BME280;15295;42.658;23.374;2022-07-29T02:27:53;94745.91;;;24.77;52.08
27958;BME280;15295;42.658;23.374;2022-07-29T02:30:32;94765.78;;;24.65;52.51
27958;BME280;15295;42.658;23.374;2022-07-29T02:33:47;94766.75;;;24.47;53.08
27958;BME280;15295;42.658;23.374;2022-07-29T02:36:54;94764.16;;;24.43;53.13
27958;BME280;15295;42.658;23.374;2022-07-29T02:39:45;94753.34;;;24.36;53.35
27958;BME280;15295;42.658;23.374;2022-07-29T02:42:50;94703.47;;;24.15;53.78
27958;BME280;15295;42.658;23.374;2022-07-29T02:45:43;94744.56;;;24.58;53.26
27958;BME280;15295;42.658;23.374;2022-07-29T02:48:51;94728.50;;;24.38;53.13
27958;BME280;15295;42.658;23.374;2022-07-29T02:55:23;94744.53;;;23.85;55.14
27958;BME280;15295;42.658;23.374;2022-07-29T02:58:41;94741.97;;;23.96;54.81
27958;BME280;15295;42.658;23.374;2022-07-29T03:01:11;94724.34;;;23.75;55.38
27958;BME280;15295;42.658;23.374;2022-07-29T03:04:30;94757.03;;;24.13;54.93
27958;BME280;15295;42.658;23.374;2022-07-29T03:07:14;94735.06;;;24.21;54.72
27958;BME280;15295;42.658;23.374;2022-07-29T03:10:27;94738.72;;;24.41;54.31
27958;BME280;15295;42.658;23.374;2022-07-29T03:13:18;94731.69;;;24.46;53.93
27958;BME280;15295;42.658;23.374;2022-07-29T03:16:46;94746.03;;;24.53;54.03
27958;BME280;15295;42.658;23.374;2022-07-29T03:19:44;94732.91;;;24.60;54.16
27958;BME280;15295;42.658;23.374;2022-07-29T03:22:21;94724.34;;;24.63;53.98
27958;BME280;15295;42.658;23.374;2022-07-29T03:25:40;94741.47;;;24.85;53.35
27958;BME280;15295;42.658;23.374;2022-07-29T03:28:35;94748.22;;;24.93;53.70
27958;BME280;15295;42.658;23.374;2022-07-29T03:32:01;94756.13;;;25.15;53.10
27958;BME280;15295;42.658;23.374;2022-07-29T03:34:32;94730.59;;;25.07;53.11
27958;BME280;15295;42.658;23.374;2022-07-29T03:37:35;94747.59;;;25.24;52.91
27958;BME280;15295;42.658;23.374;2022-07-29T03:40:06;94741.84;;;25.13;53.14
27958;BME280;15295;42.658;23.374;2022-07-29T03:43:11;94750.84;;;25.17;53.25
27958;BME280;15295;42.658;23.374;2022-07-29T03:45:44;94757.31;;;25.08;53.51
27958;BME280;15295;42.658;23.374;2022-07-29T03:48:46;94752.31;;;24.98;54.01
27958;BME280;15295;42.658;23.374;2022-07-29T03:51:38;94756.59;;;24.79;54.50
27958;BME280;15295;42.658;23.374;2022-07-29T03:54:17;94771.47;;;24.85;54.73
27958;BME280;15295;42.658;23.374;2022-07-29T03:57:34;94752.38;;;24.69;54.92
27958;BME280;15295;42.658;23.374;2022-07-29T04:00:57;94765.28;;;24.81;54.80
27958;BME280;15295;42.658;23.374;2022-07-29T04:03:56;94753.13;;;24.69;54.66
27958;BME280;15295;42.658;23.374;2022-07-29T04:07:05;94768.56;;;24.79;55.07
27958;BME280;15295;42.658;23.374;2022-07-29T04:10:11;94737.75;;;24.59;54.42
27958;BME280;15295;42.658;23.374;2022-07-29T04:13:23;94767.22;;;24.75;54.92
27958;BME280;15295;42.658;23.374;2022-07-29T04:16:20;94765.78;;;24.79;54.94
27958;BME280;15295;42.658;23.374;2022-07-29T04:19:57;94768.69;;;25.05;54.45
27958;BME280;15295;42.658;23.374;2022-07-29T04:22:55;94769.03;;;25.27;54.12
27958;BME280;15295;42.658;23.374;2022-07-29T04:25:29;94752.66;;;25.20;53.24
27958;BME280;15295;42.658;23.374;2022-07-29T04:28:38;94764.78;;;25.32;52.52
27958;BME280;15295;42.658;23.374;2022-07-29T04:35:26;94766.06;;;25.51;51.73
27958;BME280;15295;42.658;23.374;2022-07-29T04:38:25;94749.41;;;25.42;51.15
27958;BME280;15295;42.658;23.374;2022-07-29T04:41:05;94753.75;;;25.43;51.00
27958;BME280;15295;42.658;23.374;2022-07-29T04:44:08;94768.59;;;25.49;50.78
27958;BME280;15295;42.658;23.374;2022-07-29T04:46:50;94744.81;;;25.24;51.24
27958;BME280;15295;42.658;23.374;2022-07-29T04:50:05;94790.97;;;25.49;50.97
27958;BME280;15295;42.658;23.374;2022-07-29T04:56:51;94779.44;;;25.61;51.45
27958;BME280;15295;42.658;23.374;2022-07-29T04:59:25;94788.00;;;25.98;50.68
27958;BME280;15295;42.658;23.374;2022-07-29T05:08:30;94791.47;;;26.33;49.04
27958;BME280;15295;42.658;23.374;2022-07-29T05:10:56;94794.91;;;26.23;49.35
27958;BME280;15295;42.658;23.374;2022-07-29T05:13:49;94771.91;;;26.13;49.62
27958;BME280;15295;42.658;23.374;2022-07-29T05:16:57;94792.56;;;26.41;49.63
27958;BME280;15295;42.658;23.374;2022-07-29T05:19:43;94789.59;;;26.50;48.92
27958;BME280;15295;42.658;23.374;2022-07-29T05:22:37;94768.28;;;26.33;49.13
27958;BME280;15295;42.658;23.374;2022-07-29T05:26:15;94800.13;;;26.87;48.64
27958;BME280;15295;42.658;23.374;2022-07-29T05:28:54;94782.19;;;27.10;47.59
27958;BME280;15295;42.658;23.374;2022-07-29T05:32:09;94775.31;;;27.11;47.13
27958;BME280;15295;42.658;23.374;2022-07-29T05:35:01;94799.50;;;27.39;47.42
27958;BME280;15295;42.658;23.374;2022-07-29T05:38:01;94786.31;;;27.51;46.38
27958;BME280;15295;42.658;23.374;2022-07-29T05:41:16;94795.31;;;27.66;45.68
27958;BME280;15295;42.658;23.374;2022-07-29T05:44:14;94794.53;;;27.66;45.11
27958;BME280;15295;42.658;23.374;2022-07-29T05:47:02;94793.81;;;27.71;45.00
27958;BME280;15295;42.658;23.374;2022-07-29T05:49:42;94790.78;;;27.80;44.27
27958;BME280;15295;42.658;23.374;2022-07-29T05:52:13;94779.03;;;27.81;44.29
27958;BME280;15295;42.658;23.374;2022-07-29T05:55:15;94778.78;;;27.85;44.20
27958;BME280;15295;42.658;23.374;2022-07-29T05:57:44;94800.09;;;28.08;44.05
27958;BME280;15295;42.658;23.374;2022-07-29T06:00:43;94810.59;;;28.07;43.59
27958;BME280;15295;42.658;23.374;2022-07-29T06:04:17;94809.03;;;28.01;44.36
27958;BME280;15295;42.658;23.374;2022-07-29T06:07:03;94760.47;;;27.95;44.27
27958;BME280;15295;42.658;23.374;2022-07-29T06:09:42;94809.13;;;28.34;43.83
27958;BME280;15295;42.658;23.374;2022-07-29T06:15:23;94816.88;;;28.72;43.58
27958;BME280;15295;42.658;23.374;2022-07-29T06:18:15;94793.88;;;28.68;43.41
27958;BME280;15295;42.658;23.374;2022-07-29T06:21:25;94778.28;;;28.73;43.08
27958;BME280;15295;42.658;23.374;2022-07-29T06:24:12;94794.16;;;28.92;42.43
27958;BME280;15295;42.658;23.374;2022-07-29T06:26:45;94814.63;;;29.21;42.64
27958;BME280;15295;42.658;23.374;2022-07-29T06:29:14;94804.13;;;29.16;42.39
27958;BME280;15295;42.658;23.374;2022-07-29T06:31:59;94795.44;;;29.19;42.75
27958;BME280;15295;42.658;23.374;2022-07-29T06:34:45;94794.16;;;29.26;42.55
27958;BME280;15295;42.658;23.374;2022-07-29T06:37:27;94784.66;;;29.40;42.27
27958;BME280;15295;42.658;23.374;2022-07-29T06:39:58;94806.84;;;29.71;42.52
27958;BME280;15295;42.658;23.374;2022-07-29T06:43:05;94804.56;;;29.75;41.71
27958;BME280;15295;42.658;23.374;2022-07-29T06:45:59;94805.81;;;29.85;41.35
27958;BME280;15295;42.658;23.374;2022-07-29T06:48:28;94786.88;;;29.80;41.31
27958;BME280;15295;42.658;23.374;2022-07-29T06:51:22;94778.91;;;29.90;41.46
27958;BME280;15295;42.658;23.374;2022-07-29T06:54:24;94790.41;;;29.97;40.74
27958;BME280;15295;42.658;23.374;2022-07-29T06:56:55;94809.47;;;30.26;40.42
27958;BME280;15295;42.658;23.374;2022-07-29T06:59:27;94787.69;;;30.32;39.92
27958;BME280;15295;42.658;23.374;2022-07-29T07:01:53;94806.56;;;30.48;39.67
27958;BME280;15295;42.658;23.374;2022-07-29T07:04:33;94786.88;;;30.43;39.57
27958;BME280;15295;42.658;23.374;2022-07-29T07:07:36;94783.00;;;30.46;39.13
27958;BME280;15295;42.658;23.374;2022-07-29T07:10:53;94793.06;;;30.71;38.60
27958;BME280;15295;42.658;23.374;2022-07-29T07:13:53;94780.66;;;30.50;38.51
27958;BME280;15295;42.658;23.374;2022-07-29T07:16:21;94778.50;;;30.67;38.21
27958;BME280;15295;42.658;23.374;2022-07-29T07:19:16;94776.38;;;30.73;38.40
27958;BME280;15295;42.658;23.374;2022-07-29T07:22:21;94791.94;;;30.91;37.96
27958;BME280;15295;42.658;23.374;2022-07-29T07:25:11;94799.50;;;31.07;37.32
27958;BME280;15295;42.658;23.374;2022-07-29T07:28:40;94802.47;;;31.20;36.69
27958;BME280;15295;42.658;23.374;2022-07-29T07:31:30;94799.06;;;31.27;36.96
27958;BME280;15295;42.658;23.374;2022-07-29T07:34:22;94777.06;;;31.20;36.53
27958;BME280;15295;42.658;23.374;2022-07-29T07:37:44;94776.25;;;31.25;36.40
27958;BME280;15295;42.658;23.374;2022-07-29T07:40:20;94789.66;;;31.49;36.17
27958;BME280;15295;42.658;23.374;2022-07-29T07:43:43;94785.94;;;31.59;35.81
27958;BME280;15295;42.658;23.374;2022-07-29T07:46:15;94783.31;;;31.67;35.58
27958;BME280;15295;42.658;23.374;2022-07-29T07:48:44;94778.34;;;31.73;35.70
27958;BME280;15295;42.658;23.374;2022-07-29T07:51:40;94789.91;;;31.93;35.02
27958;BME280;15295;42.658;23.374;2022-07-29T07:54:27;94777.59;;;31.97;34.96
27958;BME280;15295;42.658;23.374;2022-07-29T07:56:58;94779.03;;;32.03;34.51
27958;BME280;15295;42.658;23.374;2022-07-29T07:59:40;94795.94;;;32.09;34.33
27958;BME280;15295;42.658;23.374;2022-07-29T08:02:32;94793.66;;;32.07;34.32
27958;BME280;15295;42.658;23.374;2022-07-29T08:05:22;94788.53;;;32.06;34.06
27958;BME280;15295;42.658;23.374;2022-07-29T08:08:35;94784.78;;;32.16;33.65
27958;BME280;15295;42.658;23.374;2022-07-29T08:11:43;94790.91;;;32.20;33.62
27958;BME280;15295;42.658;23.374;2022-07-29T08:14:31;94794.56;;;32.34;33.37
27958;BME280;15295;42.658;23.374;2022-07-29T08:17:42;94774.75;;;32.34;33.57
27958;BME280;15295;42.658;23.374;2022-07-29T08:20:35;94796.06;;;32.59;33.15
27958;BME280;15295;42.658;23.374;2022-07-29T08:23:29;94786.56;;;32.75;32.39
27958;BME280;15295;42.658;23.374;2022-07-29T08:26:42;94757.41;;;32.80;31.61
27958;BME280;15295;42.658;23.374;2022-07-29T08:29:38;94769.31;;;32.92;31.50
27958;BME280;15295;42.658;23.374;2022-07-29T08:32:18;94759.88;;;33.02;31.66
27958;BME280;15295;42.658;23.374;2022-07-29T08:35:14;94784.34;;;33.18;30.57
27958;BME280;15295;42.658;23.374;2022-07-29T08:37:56;94746.88;;;33.12;30.52
27958;BME280;15295;42.658;23.374;2022-07-29T08:41:07;94772.19;;;33.50;30.10
27958;BME280;15295;42.658;23.374;2022-07-29T08:44:15;94754.25;;;33.60;29.76
27958;BME280;15295;42.658;23.374;2022-07-29T08:46:42;94765.72;;;33.68;29.36
27958;BME280;15295;42.658;23.374;2022-07-29T08:49:08;94777.28;;;33.96;29.36
27958;BME280;15295;42.658;23.374;2022-07-29T08:51:47;94749.56;;;33.89;28.61
27958;BME280;15295;42.658;23.374;2022-07-29T08:54:17;94753.72;;;34.01;28.77
27958;BME280;15295;42.658;23.374;2022-07-29T08:56:51;94769.09;;;34.18;28.44
27958;BME280;15295;42.658;23.374;2022-07-29T08:59:20;94759.34;;;34.27;28.56
27958;BME280;15295;42.658;23.374;2022-07-29T09:01:58;94769.84;;;34.32;28.07
27958;BME280;15295;42.658;23.374;2022-07-29T09:04:47;94774.94;;;34.34;27.82
27958;BME280;15295;42.658;23.374;2022-07-29T09:07:19;94770.75;;;34.48;28.01
27958;BME280;15295;42.658;23.374;2022-07-29T09:10:22;94742.84;;;34.39;27.72
27958;BME280;15295;42.658;23.374;2022-07-29T09:13:31;94751.03;;;34.55;27.78
27958;BME280;15295;42.658;23.374;2022-07-29T09:16:55;94745.59;;;34.31;27.90
27958;BME280;15295;42.658;23.374;2022-07-29T09:20:19;94761.44;;;34.13;28.39
27958;BME280;15295;42.658;23.374;2022-07-29T09:23:35;94756.53;;;33.88;28.63
27958;BME280;15295;42.658;23.374;2022-07-29T09:26:46;94773.00;;;33.89;28.87
27958;BME280;15295;42.658;23.374;2022-07-29T09:34:16;94762.19;;;33.88;29.25
27958;BME280;15295;42.658;23.374;2022-07-29T09:37:08;94766.66;;;33.83;29.42
27958;BME280;15295;42.658;23.374;2022-07-29T09:40:14;94724.69;;;33.82;29.51
27958;BME280;15295;42.658;23.374;2022-07-29T09:43:40;94765.34;;;34.37;29.09
27958;BME280;15295;42.658;23.374;2022-07-29T09:46:21;94715.81;;;34.25;28.41
27958;BME280;15295;42.658;23.374;2022-07-29T09:49:12;94734.41;;;34.59;28.34
27958;BME280;15295;42.658;23.374;2022-07-29T09:51:46;94730.75;;;34.72;28.37
27958;BME280;15295;42.658;23.374;2022-07-29T09:54:27;94744.38;;;35.07;28.09
27958;BME280;15295;42.658;23.374;2022-07-29T09:57:24;94746.44;;;35.27;27.27
27958;BME280;15295;42.658;23.374;2022-07-29T10:00:19;94738.88;;;35.30;27.54
27958;BME280;15295;42.658;23.374;2022-07-29T10:03:05;94719.84;;;35.17;27.60
27958;BME280;15295;42.658;23.374;2022-07-29T10:06:17;94713.47;;;35.24;27.54
27958;BME280;15295;42.658;23.374;2022-07-29T10:12:17;94727.31;;;35.48;26.94
27958;BME280;15295;42.658;23.374;2022-07-29T10:15:30;94725.63;;;35.53;26.42
27958;BME280;15295;42.658;23.374;2022-07-29T10:18:43;94701.44;;;35.39;27.03
27958;BME280;15295;42.658;23.374;2022-07-29T10:22:12;94707.66;;;35.37;27.37
27958;BME280;15295;42.658;23.374;2022-07-29T10:25:05;94710.50;;;35.37;27.86
27958;BME280;15295;42.658;23.374;2022-07-29T10:27:51;94715.88;;;35.41;27.10
27958;BME280;15295;42.658;23.374;2022-07-29T10:30:39;94712.22;;;35.61;26.47
27958;BME280;15295;42.658;23.374;2022-07-29T10:42:30;94686.81;;;35.91;25.88
27958;BME280;15295;42.658;23.374;2022-07-29T10:45:55;94702.34;;;36.18;25.52
27958;BME280;15295;42.658;23.374;2022-07-29T10:49:14;94686.22;;;36.28;24.97
27958;BME280;15295;42.658;23.374;2022-07-29T10:52:15;94703.13;;;36.26;25.81
27958;BME280;15295;42.658;23.374;2022-07-29T10:57:41;94688.84;;;36.70;24.92
27958;BME280;15295;42.658;23.374;2022-07-29T11:00:42;94691.09;;;36.56;24.37
27958;BME280;15295;42.658;23.374;2022-07-29T11:03:47;94674.00;;;36.64;24.65
27958;BME280;15295;42.658;23.374;2022-07-29T11:07:27;94669.84;;;36.65;24.67
27958;BME280;15295;42.658;23.374;2022-07-29T11:09:24;94674.38;;;36.68;24.45
27958;BME280;15295;42.658;23.374;2022-07-29T11:11:56;94682.44;;;36.92;24.51
27958;BME280;15295;42.658;23.374;2022-07-29T11:23:37;94661.94;;;37.01;23.93
27958;BME280;15295;42.658;23.374;2022-07-29T11:26:20;94655.09;;;36.96;24.34
27958;BME280;15295;42.658;23.374;2022-07-29T11:29:28;94666.28;;;37.17;24.20
27958;BME280;15295;42.658;23.374;2022-07-29T11:32:46;94657.00;;;37.17;24.03
27958;BME280;15295;42.658;23.374;2022-07-29T11:36:14;94657.34;;;37.13;24.37
27958;BME280;15295;42.658;23.374;2022-07-29T11:43:09;94657.19;;;37.03;23.81
27958;BME280;15295;42.658;23.374;2022-07-29T11:49:26;94638.56;;;37.18;23.63
27958;BME280;15295;42.658;23.374;2022-07-29T11:52:18;94626.00;;;37.13;23.40
27958;BME280;15295;42.658;23.374;2022-07-29T11:54:48;94645.59;;;37.39;23.29
27958;BME280;15295;42.658;23.374;2022-07-29T11:57:30;94641.97;;;37.46;22.99
27958;BME280;15295;42.658;23.374;2022-07-29T12:00:01;94622.19;;;37.41;22.63
27958;BME280;15295;42.658;23.374;2022-07-29T12:02:45;94641.16;;;37.61;23.12
27958;BME280;15295;42.658;23.374;2022-07-29T12:06:03;94621.66;;;37.12;23.51
27958;BME280;15295;42.658;23.374;2022-07-29T12:09:40;94643.28;;;37.30;23.31
27958;BME280;15295;42.658;23.374;2022-07-29T12:12:53;94638.75;;;37.42;23.27
27958;BME280;15295;42.658;23.374;2022-07-29T12:15:57;94615.16;;;37.49;22.86
27958;BME280;15295;42.658;23.374;2022-07-29T12:19:21;94625.91;;;37.89;22.88
27958;BME280;15295;42.658;23.374;2022-07-29T12:22:08;94591.72;;;37.66;22.58
27958;BME280;15295;42.658;23.374;2022-07-29T12:25:08;94611.69;;;37.81;22.76
27958;BME280;15295;42.658;23.374;2022-07-29T12:27:57;94643.38;;;37.93;22.67
27958;BME280;15295;42.658;23.374;2022-07-29T12:30:48;94633.31;;;37.92;22.29
27958;BME280;15295;42.658;23.374;2022-07-29T12:33:38;94644.00;;;37.68;22.31
27958;BME280;15295;42.658;23.374;2022-07-29T12:36:19;94626.13;;;37.68;22.10
27958;BME280;15295;42.658;23.374;2022-07-29T12:39:14;94638.47;;;37.70;22.25
27958;BME280;15295;42.658;23.374;2022-07-29T12:42:32;94607.94;;;37.33;22.57
27958;BME280;15295;42.658;23.374;2022-07-29T12:45:33;94624.41;;;37.72;22.68
27958;BME280;15295;42.658;23.374;2022-07-29T12:48:43;94628.03;;;37.80;22.37
27958;BME280;15295;42.658;23.374;2022-07-29T12:51:25;94592.28;;;37.72;22.23
27958;BME280;15295;42.658;23.374;2022-07-29T12:54:14;94612.00;;;37.77;22.17
27958;BME280;15295;42.658;23.374;2022-07-29T12:57:43;94585.41;;;37.82;22.17
27958;BME280;15295;42.658;23.374;2022-07-29T13:01:00;94603.06;;;37.89;22.67
27958;BME280;15295;42.658;23.374;2022-07-29T13:03:29;94577.66;;;37.68;22.53
27958;BME280;15295;42.658;23.374;2022-07-29T13:09:17;94596.16;;;38.07;22.68
27958;BME280;15295;42.658;23.374;2022-07-29T13:11:56;94559.16;;;37.84;22.47
27958;BME280;15295;42.658;23.374;2022-07-29T13:14:59;94595.75;;;38.03;22.67
27958;BME280;15295;42.658;23.374;2022-07-29T13:17:42;94603.66;;;37.79;22.58
27958;BME280;15295;42.658;23.374;2022-07-29T13:20:16;94583.59;;;37.55;22.96
27958;BME280;15295;42.658;23.374;2022-07-29T13:23:20;94589.19;;;37.77;22.55
27958;BME280;15295;42.658;23.374;2022-07-29T13:26:30;94588.28;;;37.67;22.96
27958;BME280;15295;42.658;23.374;2022-07-29T13:32:09;94538.59;;;37.38;23.04
27958;BME280;15295;42.658;23.374;2022-07-29T13:35:11;94575.00;;;37.62;22.82
27958;BME280;15295;42.658;23.374;2022-07-29T13:38:01;94554.97;;;37.07;22.89
27958;BME280;15295;42.658;23.374;2022-07-29T13:40:36;94581.56;;;37.40;22.99
27958;BME280;15295;42.658;23.374;2022-07-29T13:46:17;94514.75;;;36.66;23.58
27958;BME280;15295;42.658;23.374;2022-07-29T13:49:00;94574.94;;;36.92;23.43
27958;BME280;15295;42.658;23.374;2022-07-29T13:52:37;94571.88;;;36.68;23.83
27958;BME280;15295;42.658;23.374;2022-07-29T13:55:43;94577.56;;;36.68;23.49
27958;BME280;15295;42.658;23.374;2022-07-29T13:58:47;94572.69;;;36.91;23.57
27958;BME280;15295;42.658;23.374;2022-07-29T14:01:36;94577.78;;;36.92;23.49
27958;BME280;15295;42.658;23.374;2022-07-29T14:04:43;94563.53;;;36.62;23.61
27958;BME280;15295;42.658;23.374;2022-07-29T14:08:17;94579.63;;;36.37;24.42
27958;BME280;15295;42.658;23.374;2022-07-29T14:10:55;94543.16;;;36.05;24.10
27958;BME280;15295;42.658;23.374;2022-07-29T14:14:15;94545.44;;;36.22;23.83
27958;BME280;15295;42.658;23.374;2022-07-29T14:17:13;94528.94;;;36.13;24.20
27958;BME280;15295;42.658;23.374;2022-07-29T14:20:11;94550.38;;;36.21;24.11
27958;BME280;15295;42.658;23.374;2022-07-29T14:23:06;94556.25;;;36.23;24.29
27958;BME280;15295;42.658;23.374;2022-07-29T14:25:42;94570.50;;;36.23;24.49
27958;BME280;15295;42.658;23.374;2022-07-29T14:28:12;94522.59;;;35.84;24.64
27958;BME280;15295;42.658;23.374;2022-07-29T14:30:43;94542.00;;;36.08;24.21
27958;BME280;15295;42.658;23.374;2022-07-29T14:33:39;94558.34;;;36.15;24.15
27958;BME280;15295;42.658;23.374;2022-07-29T14:36:28;94533.47;;;36.08;24.06
27958;BME280;15295;42.658;23.374;2022-07-29T14:39:11;94537.22;;;35.88;24.53
27958;BME280;15295;42.658;23.374;2022-07-29T14:42:19;94537.28;;;36.03;24.12
27958;BME280;15295;42.658;23.374;2022-07-29T14:45:15;94556.38;;;35.95;24.54
27958;BME280;15295;42.658;23.374;2022-07-29T14:47:42;94545.56;;;35.94;24.34
27958;BME280;15295;42.658;23.374;2022-07-29T14:50:25;94569.53;;;36.13;24.19
27958;BME280;15295;42.658;23.374;2022-07-29T14:52:54;94542.34;;;35.97;24.25
27958;BME280;15295;42.658;23.374;2022-07-29T14:55:21;94564.91;;;35.95;23.74
27958;BME280;15295;42.658;23.374;2022-07-29T14:57:48;94572.78;;;35.74;24.05
27958;BME280;15295;42.658;23.374;2022-07-29T15:00:16;94537.34;;;35.75;23.80
27958;BME280;15295;42.658;23.374;2022-07-29T15:02:51;94555.38;;;35.78;23.84
27958;BME280;15295;42.658;23.374;2022-07-29T15:05:22;94551.72;;;35.62;24.17
27958;BME280;15295;42.658;23.374;2022-07-29T15:08:19;94553.97;;;35.99;23.99
27958;BME280;15295;42.658;23.374;2022-07-29T15:10:58;94564.91;;;35.95;23.75
27958;BME280;15295;42.658;23.374;2022-07-29T15:13:35;94561.53;;;36.04;23.61
27958;BME280;15295;42.658;23.374;2022-07-29T15:16:19;94565.75;;;35.67;23.98
27958;BME280;15295;42.658;23.374;2022-07-29T15:19:14;94532.78;;;35.64;23.75
27958;BME280;15295;42.658;23.374;2022-07-29T15:21:41;94542.00;;;35.50;24.06
27958;BME280;15295;42.658;23.374;2022-07-29T15:24:17;94554.19;;;35.65;23.72
27958;BME280;15295;42.658;23.374;2022-07-29T15:26:58;94534.13;;;35.79;23.73
27958;BME280;15295;42.658;23.374;2022-07-29T15:29:28;94526.31;;;35.56;23.51
27958;BME280;15295;42.658;23.374;2022-07-29T15:32:12;94546.56;;;35.53;23.88
27958;BME280;15295;42.658;23.374;2022-07-29T15:34:54;94516.97;;;35.13;24.27
27958;BME280;15295;42.658;23.374;2022-07-29T15:37:27;94544.19;;;35.44;24.36
27958;BME280;15295;42.658;23.374;2022-07-29T15:40:17;94508.53;;;35.28;24.37
27958;BME280;15295;42.658;23.374;2022-07-29T15:42:50;94543.56;;;35.58;24.31
27958;BME280;15295;42.658;23.374;2022-07-29T15:45:43;94532.47;;;35.12;24.86
27958;BME280;15295;42.658;23.374;2022-07-29T15:51:17;94553.09;;;35.40;24.74
27958;BME280;15295;42.658;23.374;2022-07-29T15:54:11;94557.94;;;35.25;25.13
27958;BME280;15295;42.658;23.374;2022-07-29T15:57:00;94561.91;;;34.93;25.52
27958;BME280;15295;42.658;23.374;2022-07-29T15:59:37;94523.84;;;34.48;25.61
27958;BME280;15295;42.658;23.374;2022-07-29T16:02:30;94560.78;;;34.68;25.77
27958;BME280;15295;42.658;23.374;2022-07-29T16:05:04;94530.38;;;34.35;26.20
27958;BME280;15295;42.658;23.374;2022-07-29T16:07:40;94525.53;;;34.43;25.94
27958;BME280;15295;42.658;23.374;2022-07-29T16:10:11;94501.13;;;34.40;25.96
27958;BME280;15295;42.658;23.374;2022-07-29T16:12:43;94512.91;;;34.24;26.03
27958;BME280;15295;42.658;23.374;2022-07-29T16:15:33;94538.50;;;34.52;26.17
27958;BME280;15295;42.658;23.374;2022-07-29T16:18:10;94521.81;;;34.07;26.39
27958;BME280;15295;42.658;23.374;2022-07-29T16:20:58;94548.75;;;34.34;26.52
27958;BME280;15295;42.658;23.374;2022-07-29T16:23:51;94535.31;;;34.14;26.66
27958;BME280;15295;42.658;23.374;2022-07-29T16:26:33;94558.34;;;33.77;26.95
27958;BME280;15295;42.658;23.374;2022-07-29T16:29:29;94548.09;;;33.74;27.67
27958;BME280;15295;42.658;23.374;2022-07-29T16:35:05;94523.59;;;33.63;27.40
27958;BME280;15295;42.658;23.374;2022-07-29T16:37:34;94545.84;;;33.46;27.73
27958;BME280;15295;42.658;23.374;2022-07-29T16:40:37;94545.66;;;33.57;27.34
27958;BME280;15295;42.658;23.374;2022-07-29T16:43:12;94568.34;;;33.78;27.48
27958;BME280;15295;42.658;23.374;2022-07-29T16:46:10;94545.22;;;33.53;27.80
27958;BME280;15295;42.658;23.374;2022-07-29T16:48:39;94523.06;;;33.52;27.33
27958;BME280;15295;42.658;23.374;2022-07-29T16:51:22;94552.69;;;33.77;27.38
27958;BME280;15295;42.658;23.374;2022-07-29T16:53:56;94541.47;;;33.58;27.55
27958;BME280;15295;42.658;23.374;2022-07-29T16:57:09;94543.38;;;33.42;27.32